createdAt,value
2022-10-19T00:04:13.897Z,10.33
2022-10-19T00:09:20.579Z,8.67
2022-10-19T00:14:25.360Z,9.07
2022-10-19T00:19:29.681Z,8.67
2022-10-19T00:24:34.511Z,8.97
2022-10-19T00:29:37.903Z,10.40
2022-10-19T00:34:41.297Z,9.80
2022-10-19T00:39:46.135Z,9.43
2022-10-19T00:45:04.989Z,9.93
2022-10-19T00:50:10.054Z,9.80
2022-10-19T00:55:15.463Z,7.10
2022-10-19T01:00:19.497Z,4.97
2022-10-19T01:05:22.932Z,5.33
2022-10-19T01:10:39.190Z,5.40
2022-10-19T01:15:48.316Z,4.50
2022-10-19T01:21:20.343Z,3.23
2022-10-19T01:26:45.891Z,3.03
2022-10-19T01:31:57.383Z,3.03
2022-10-19T01:37:05.255Z,3.63
2022-10-19T01:42:15.959Z,3.10
2022-10-19T01:47:24.338Z,3.20
2022-10-19T01:52:29.056Z,3.20
2022-10-19T01:57:36.223Z,3.03
2022-10-19T02:02:46.527Z,2.57
2022-10-19T02:07:56.049Z,2.93
2022-10-19T02:13:00.003Z,3.13
2022-10-19T02:18:30.451Z,2.30
2022-10-19T02:23:34.222Z,2.80
2022-10-19T02:28:38.591Z,2.87
2022-10-19T02:33:43.799Z,3.10
2022-10-19T02:38:47.408Z,3.60
2022-10-19T02:43:58.704Z,3.37
2022-10-19T02:49:05.544Z,3.07
2022-10-19T02:54:10.182Z,4.23
2022-10-19T02:59:13.780Z,2.43
2022-10-19T03:04:18.733Z,2.47
2022-10-19T03:09:22.145Z,2.60
2022-10-19T03:14:25.496Z,2.87
2022-10-19T03:19:30.808Z,2.57
2022-10-19T03:24:34.773Z,2.40
2022-10-19T03:29:38.123Z,2.33
2022-10-19T03:34:42.857Z,2.10
2022-10-19T03:39:46.266Z,2.27
2022-10-19T03:44:49.580Z,2.40
2022-10-19T03:49:54.442Z,1.90
2022-10-19T03:54:58.073Z,1.97
2022-10-19T04:00:01.696Z,1.77
2022-10-19T04:05:16.781Z,1.90
2022-10-19T04:10:20.128Z,2.77
2022-10-19T04:15:23.801Z,2.13
2022-10-19T04:20:28.825Z,1.90
2022-10-19T04:25:32.487Z,2.00
2022-10-19T04:30:35.862Z,1.83
2022-10-19T04:35:40.715Z,1.60
2022-10-19T04:40:44.540Z,1.60
2022-10-19T04:45:47.959Z,1.50
2022-10-19T04:50:56.100Z,1.60
2022-10-19T04:55:59.612Z,1.80
2022-10-19T05:01:09.857Z,1.90
2022-10-19T05:06:16.184Z,1.70
2022-10-19T05:11:20.173Z,2.33
2022-10-19T05:16:25.924Z,3.33
2022-10-19T05:21:30.836Z,3.70
2022-10-19T05:26:34.210Z,4.30
2022-10-19T05:31:37.541Z,4.67
2022-10-19T05:36:42.749Z,3.93
2022-10-19T05:41:47.467Z,4.17
2022-10-19T05:46:52.166Z,4.53
2022-10-19T05:51:57.172Z,4.40
2022-10-19T05:57:01.149Z,4.73
2022-10-19T06:02:04.986Z,3.83
2022-10-19T06:07:09.778Z,4.30
2022-10-19T06:12:14.883Z,5.40
2022-10-19T06:17:19.774Z,5.20
2022-10-19T06:22:24.797Z,5.07
2022-10-19T06:27:28.206Z,4.97
2022-10-19T06:32:33.975Z,4.87
2022-10-19T06:37:38.954Z,5.50
2022-10-19T06:42:42.376Z,5.67
2022-10-19T06:52:57.570Z,5.03
2022-10-19T06:58:01.910Z,4.77
2022-10-19T07:03:05.640Z,5.40
2022-10-19T07:08:10.583Z,4.97
2022-10-19T07:13:14.157Z,5.00
2022-10-19T07:18:17.587Z,4.90
2022-10-19T07:23:22.675Z,4.73
2022-10-19T07:28:26.378Z,4.60
2022-10-19T07:33:29.849Z,4.17
2022-10-19T07:38:35.759Z,4.43
2022-10-19T07:43:39.291Z,3.50
2022-10-19T07:48:43.077Z,3.80
2022-10-19T07:53:47.954Z,3.77
2022-10-19T07:58:53.830Z,3.43
2022-10-19T08:04:55.364Z,3.57
2022-10-19T08:09:50.907Z,3.70
2022-10-19T08:14:48.208Z,3.70
2022-10-19T08:19:51.872Z,4.13
2022-10-19T08:24:56.687Z,3.90
2022-10-19T08:30:00.066Z,3.97
2022-10-19T08:35:06.065Z,4.00
2022-10-19T08:40:20.152Z,4.27
2022-10-19T08:45:43.291Z,3.73
2022-10-19T08:50:48.310Z,3.77
2022-10-19T08:56:06.467Z,3.77
2022-10-19T09:01:15.366Z,4.03
2022-10-19T09:06:26.569Z,3.90
2022-10-19T09:11:34.387Z,3.50
2022-10-19T09:16:37.875Z,3.70
2022-10-19T09:21:47.903Z,3.53
2022-10-19T09:26:54.609Z,3.95
2022-10-19T09:32:01.597Z,3.70
2022-10-19T09:37:05.561Z,4.53
2022-10-19T09:42:18.562Z,3.55
2022-10-19T09:47:34.302Z,3.97
2022-10-19T09:52:39.895Z,4.25
2022-10-19T09:57:45.916Z,3.92
2022-10-19T10:02:53.173Z,4.43
2022-10-19T10:07:56.946Z,4.40
2022-10-19T10:13:02.256Z,3.85
2022-10-19T10:18:05.854Z,3.70
2022-10-19T10:23:25.055Z,3.97
2022-10-19T10:28:31.435Z,4.32
2022-10-19T10:33:45.033Z,4.00
2022-10-19T10:38:53.208Z,4.28
2022-10-19T10:44:04.568Z,4.00
2022-10-19T10:49:17.900Z,4.28
2022-10-19T10:54:23.081Z,4.82
2022-10-19T10:59:32.405Z,5.00
2022-10-19T11:04:42.404Z,4.55
2022-10-19T11:09:52.201Z,5.20
2022-10-19T11:15:05.131Z,4.30
2022-10-19T11:20:15.284Z,4.30
2022-10-19T11:25:31.355Z,4.30
2022-10-19T11:30:42.847Z,4.18
2022-10-19T11:35:53.276Z,4.05
2022-10-19T11:41:24.380Z,4.15
2022-10-19T11:46:37.112Z,4.72
2022-10-19T11:51:47.157Z,4.07
2022-10-19T11:57:04.721Z,4.35
2022-10-19T12:02:32.819Z,3.80
2022-10-19T12:07:57.854Z,3.65
2022-10-19T12:13:04.818Z,3.85
2022-10-19T12:18:17.529Z,3.85
2022-10-19T12:23:29.482Z,3.53
2022-10-19T12:28:35.266Z,3.53
2022-10-19T12:33:47.451Z,4.15
2022-10-19T12:39:01.015Z,4.18
2022-10-19T12:44:21.148Z,5.20
2022-10-19T12:49:45.957Z,5.60
2022-10-19T12:54:49.629Z,5.90
2022-10-19T13:00:02.130Z,6.30
2022-10-19T13:05:08.676Z,7.20
2022-10-19T13:10:22.674Z,6.57
2022-10-19T13:15:52.742Z,6.40
2022-10-19T13:20:58.740Z,7.88
2022-10-19T13:26:35.603Z,7.35
2022-10-19T13:31:39.354Z,6.90
2022-10-19T13:37:01.417Z,6.32
2022-10-19T13:42:04.856Z,7.10
2022-10-19T13:47:34.488Z,6.50
2022-10-19T13:52:55.096Z,7.55
2022-10-19T13:58:24.156Z,6.85
2022-10-19T14:03:40.987Z,7.57
2022-10-19T14:09:14.067Z,6.85
2022-10-19T14:14:20.314Z,7.43
2022-10-19T14:19:28.244Z,7.25
2022-10-19T14:24:37.082Z,7.32
2022-10-19T14:29:47.098Z,7.53
2022-10-19T14:34:51.125Z,7.07
2022-10-19T14:40:08.984Z,7.10
2022-10-19T14:45:18.261Z,8.18
2022-10-19T14:50:24.886Z,7.13
2022-10-19T14:55:37.453Z,7.00
2022-10-19T15:00:41.315Z,7.40
2022-10-19T15:05:49.417Z,8.05
2022-10-19T15:10:54.790Z,8.35
2022-10-19T15:15:58.240Z,7.90
2022-10-19T15:21:12.296Z,10.82
2022-10-19T15:26:28.281Z,8.80
2022-10-19T15:31:31.785Z,8.55
2022-10-19T15:36:35.152Z,9.25
2022-10-19T15:41:41.192Z,9.40
2022-10-19T15:47:19.338Z,20.45
2022-10-19T15:52:24.107Z,18.45
2022-10-19T15:57:31.997Z,24.73
2022-10-19T16:02:35.657Z,37.15
2022-10-19T16:07:41.338Z,18.50
2022-10-19T16:12:46.211Z,14.02
2022-10-19T16:17:51.174Z,13.70
2022-10-19T16:22:54.900Z,13.83
2022-10-19T16:27:59.925Z,12.37
2022-10-19T16:33:03.549Z,12.20
2022-10-19T16:38:06.931Z,11.57
2022-10-19T16:43:11.688Z,11.33
2022-10-19T16:48:15.396Z,10.57
2022-10-19T16:53:18.804Z,10.10
2022-10-19T16:58:23.548Z,10.13
2022-10-19T17:03:26.910Z,9.40
2022-10-19T17:08:36.975Z,10.47
2022-10-19T17:13:58.689Z,8.70
2022-10-19T17:19:03.276Z,9.90
2022-10-19T17:24:08.796Z,9.50
2022-10-19T17:29:13.763Z,9.90
2022-10-19T17:34:17.424Z,9.27
2022-10-19T17:39:25.717Z,10.30
2022-10-19T17:44:35.012Z,13.87
2022-10-19T17:49:38.605Z,16.73
2022-10-19T17:54:54.387Z,14.33
2022-10-19T18:00:09.383Z,11.63
2022-10-19T18:05:16.105Z,11.37
2022-10-19T18:10:19.592Z,10.77
2022-10-19T18:15:24.348Z,12.27
2022-10-19T18:20:28.395Z,11.50
2022-10-19T18:25:52.848Z,11.33
2022-10-19T18:30:56.543Z,11.23
2022-10-19T18:36:00.160Z,11.60
2022-10-19T18:41:03.854Z,11.30
2022-10-19T18:46:10.112Z,11.43
2022-10-19T18:51:15.520Z,11.63
2022-10-19T18:56:21.232Z,11.93
2022-10-19T19:01:28.163Z,12.83
2022-10-19T19:06:34.500Z,11.67
2022-10-19T19:11:41.036Z,11.33
2022-10-19T19:16:47.226Z,10.50
2022-10-19T19:21:50.595Z,10.80
2022-10-19T19:26:55.368Z,10.30
2022-10-19T19:32:00.154Z,12.53
2022-10-19T19:37:06.153Z,12.33
2022-10-19T19:42:12.256Z,11.37
2022-10-19T19:47:19.391Z,12.47
2022-10-19T19:52:22.764Z,11.73
2022-10-19T19:57:26.298Z,11.63
2022-10-19T20:02:32.951Z,11.60
2022-10-19T20:07:36.641Z,12.40
2022-10-19T20:12:40.203Z,11.43
2022-10-19T20:17:45.877Z,10.60
2022-10-19T20:22:50.544Z,11.53
2022-10-19T20:27:54.163Z,12.63
2022-10-19T20:32:59.628Z,11.60
2022-10-19T20:38:03.925Z,12.50
2022-10-19T20:43:07.588Z,11.10
2022-10-19T20:48:12.572Z,12.27
2022-10-19T20:53:15.876Z,10.37
2022-10-19T20:58:19.283Z,11.33
2022-10-19T21:03:24.143Z,11.60
2022-10-19T21:08:27.593Z,12.27
2022-10-19T21:13:30.990Z,10.17
2022-10-19T21:18:36.096Z,11.33
2022-10-19T21:23:39.656Z,9.80
2022-10-19T21:28:48.718Z,11.20
2022-10-19T21:33:54.377Z,10.33
2022-10-19T21:38:57.695Z,10.00
2022-10-19T21:44:01.708Z,11.73
2022-10-19T21:49:06.494Z,10.83
2022-10-19T21:54:13.702Z,11.00
2022-10-19T21:59:17.727Z,9.60
2022-10-19T22:04:22.901Z,11.13
2022-10-19T22:09:26.270Z,11.10
2022-10-19T22:14:29.863Z,10.53
2022-10-19T22:19:35.039Z,10.80
2022-10-19T22:24:38.815Z,10.27
2022-10-19T22:29:42.247Z,10.80
2022-10-19T22:34:47.403Z,10.60
2022-10-19T22:39:50.746Z,10.70
2022-10-19T22:44:54.068Z,11.67
2022-10-19T22:49:58.844Z,10.77
2022-10-19T22:55:02.183Z,10.00
2022-10-19T23:00:07.212Z,10.10
2022-10-19T23:05:12.199Z,9.97
2022-10-19T23:10:15.617Z,10.90
2022-10-19T23:15:19.392Z,10.57
2022-10-19T23:20:24.081Z,10.33
2022-10-19T23:25:27.491Z,10.03
2022-10-19T23:30:30.851Z,10.53
2022-10-19T23:35:35.737Z,10.67
2022-10-19T23:40:39.093Z,9.20
2022-10-19T23:45:42.427Z,10.03
2022-10-19T23:50:47.283Z,9.97
2022-10-19T23:55:50.663Z,10.03
